Terminal Aerodrome Forecast
Issued by NWS Blacksburg, VA

Current Version | Previous Version | Text Only | Print | Product List | Glossary Off
Versions: 1 2 3 4 5 6 7 8 9 10 11 12 13 14 15 16 17 18 19 20 21 22 23 24 25 26 27 28

000
FTUS41 KRNK 141120
TAFBLF
TAF
KBLF 141120Z 1412/1512 14006KT P6SM -RA SCT005 OVC012
     FM141400 23007KT P6SM OVC007
     FM142000 26008KT 4SM -RA BR OVC008
     FM150100 26006KT 2SM -RA BR OVC003=

USA.gov is the U.S. government's official web portal to all federal, state and local government web resources and services.